Time;durP1;ratioP1;P1;durP2;ratioP2;P2;SDS_P1;SDS_P2;PMS_P1;PMS_P2;Temp;Humidity;BMP_temperature;BMP_pressure;BME280_temperature;BME280_humidity;BME280_pressure;Samples;Min_cycle;Max_cycle;Signal;HPM_P1;HPM_P2
2023/09/13 00:01:36;;;;;;;109.15;58.92;;;20.40;93.10;;;;;;4934132;28;94754;-75
2023/09/13 00:04:02;;;;;;;106.45;56.78;;;20.40;93.00;;;;;;4940856;28;94389;-74
2023/09/13 00:06:28;;;;;;;107.22;57.22;;;20.40;93.40;;;;;;4935384;28;94674;-75
2023/09/13 00:08:53;;;;;;;106.47;57.08;;;20.40;93.20;;;;;;4944071;28;94844;-75
2023/09/13 00:11:19;;;;;;;108.20;57.88;;;20.40;93.20;;;;;;4923629;28;95313;-73
2023/09/13 00:13:44;;;;;;;105.95;57.22;;;20.30;93.10;;;;;;4945463;28;95827;-75
2023/09/13 00:16:11;;;;;;;107.65;58.22;;;20.30;93.10;;;;;;4937680;28;95045;-73
2023/09/13 00:18:37;;;;;;;107.18;58.28;;;20.30;93.10;;;;;;4942193;28;95787;-73
2023/09/13 00:21:02;;;;;;;106.38;57.17;;;20.30;93.20;;;;;;4939564;28;94507;-75
2023/09/13 00:23:28;;;;;;;107.75;58.25;;;20.30;93.80;;;;;;4944792;28;95131;-75
2023/09/13 00:25:54;;;;;;;108.32;58.03;;;20.20;93.50;;;;;;4941261;28;94291;-76
2023/09/13 00:28:19;;;;;;;107.55;57.38;;;20.20;93.30;;;;;;4929902;28;94540;-74
2023/09/13 00:30:45;;;;;;;110.78;59.45;;;20.20;93.40;;;;;;4943457;28;94477;-75
2023/09/13 00:33:11;;;;;;;106.28;57.45;;;20.20;93.50;;;;;;4942683;28;96595;-74
2023/09/13 00:35:36;;;;;;;106.15;57.35;;;20.20;93.80;;;;;;4938403;28;95232;-74
2023/09/13 00:38:02;;;;;;;111.55;59.70;;;20.20;93.90;;;;;;4942963;28;95369;-74
2023/09/13 00:40:28;;;;;;;112.03;60.67;;;20.10;93.20;;;;;;4940124;28;94080;-75
2023/09/13 00:42:54;;;;;;;105.57;56.72;;;20.20;93.50;;;;;;4938474;28;95280;-75
2023/09/13 00:45:20;;;;;;;110.13;59.58;;;20.10;94.20;;;;;;4939015;28;94512;-74
2023/09/13 00:47:46;;;;;;;108.05;57.90;;;20.10;93.60;;;;;;4934650;28;94266;-75
2023/09/13 00:50:14;;;;;;;107.15;57.53;;;20.10;93.80;;;;;;4944209;28;94972;-74
2023/09/13 00:52:42;;;;;;;110.68;59.97;;;20.10;94.00;;;;;;4941722;28;95345;-73
2023/09/13 00:55:10;;;;;;;114.30;61.75;;;20.10;93.50;;;;;;4939288;28;96739;-75
2023/09/13 00:57:37;;;;;;;112.45;59.78;;;20.00;93.50;;;;;;4933041;28;95197;-75
2023/09/13 01:00:09;;;;;;;108.47;58.20;;;20.00;93.60;;;;;;4922516;28;94389;-75
2023/09/13 01:02:35;;;;;;;112.60;60.50;;;20.00;93.70;;;;;;4939842;28;96733;-73
2023/09/13 01:05:03;;;;;;;112.53;59.78;;;20.00;93.80;;;;;;4938241;28;94983;-73
2023/09/13 01:07:29;;;;;;;112.55;60.20;;;20.00;93.50;;;;;;4926972;28;96210;-75
2023/09/13 01:09:55;;;;;;;106.53;57.63;;;20.00;93.90;;;;;;4936124;28;95902;-76
2023/09/13 01:12:22;;;;;;;112.10;60.60;;;20.00;94.20;;;;;;4943293;28;94908;-74
2023/09/13 01:14:48;;;;;;;110.95;59.17;;;20.00;93.60;;;;;;4935245;28;94956;-76
2023/09/13 01:17:20;;;;;;;108.95;58.15;;;20.00;94.10;;;;;;4941604;28;95509;-75
2023/09/13 01:20:07;;;;;;;116.53;61.75;;;20.00;93.70;;;;;;4938238;28;94729;-76
2023/09/13 01:22:44;;;;;;;111.13;59.38;;;20.00;94.60;;;;;;4922146;28;96407;-76
2023/09/13 01:25:21;;;;;;;114.80;62.50;;;20.00;93.80;;;;;;4940656;28;94351;-76
2023/09/13 01:27:58;;;;;;;113.15;60.22;;;20.00;93.70;;;;;;4919892;28;95232;-73
2023/09/13 01:30:28;;;;;;;106.88;57.28;;;20.00;93.70;;;;;;4939691;28;95845;-76
2023/09/13 01:32:53;;;;;;;111.63;60.17;;;20.00;94.40;;;;;;4939976;28;94867;-74
2023/09/13 01:35:19;;;;;;;113.13;60.13;;;20.10;94.00;;;;;;4938366;28;94497;-76
2023/09/13 01:37:45;;;;;;;117.50;63.95;;;20.10;94.30;;;;;;4944237;28;94395;-75
2023/09/13 01:40:10;;;;;;;111.50;60.05;;;20.10;93.40;;;;;;4935427;28;94007;-73
2023/09/13 01:42:41;;;;;;;115.03;62.95;;;20.10;93.80;;;;;;4926907;28;95336;-75
2023/09/13 01:45:11;;;;;;;109.50;59.13;;;20.10;93.40;;;;;;4938347;28;94680;-74
2023/09/13 01:47:42;;;;;;;116.53;63.25;;;20.10;94.10;;;;;;4945338;28;94535;-74
2023/09/13 01:50:09;;;;;;;118.47;63.92;;;20.10;93.20;;;;;;4944622;28;94654;-74
2023/09/13 01:52:36;;;;;;;114.72;62.50;;;20.10;93.20;;;;;;4922707;28;97552;-76
2023/09/13 01:55:06;;;;;;;111.85;61.55;;;20.10;93.30;;;;;;4942073;28;94825;-76
2023/09/13 01:57:32;;;;;;;107.53;58.20;;;20.10;93.60;;;;;;4917748;28;94442;-74
2023/09/13 01:59:58;;;;;;;117.40;61.85;;;20.10;93.70;;;;;;4924443;28;94330;-76
2023/09/13 02:02:23;;;;;;;111.95;59.70;;;20.10;93.40;;;;;;4937381;28;95776;-76
2023/09/13 02:04:49;;;;;;;107.97;57.85;;;20.10;93.30;;;;;;4939166;28;95546;-76
2023/09/13 02:07:16;;;;;;;114.55;61.63;;;20.10;94.20;;;;;;4935775;28;94779;-75
2023/09/13 02:09:42;;;;;;;112.65;60.70;;;20.10;93.10;;;;;;4937678;28;94279;-75
2023/09/13 02:12:12;;;;;;;114.03;62.30;;;20.10;93.60;;;;;;4936054;28;94315;-74
2023/09/13 02:14:38;;;;;;;106.13;57.47;;;20.10;93.20;;;;;;4939352;28;96860;-75
2023/09/13 02:17:06;;;;;;;112.75;61.10;;;20.10;93.70;;;;;;4941694;28;95849;-74
2023/09/13 02:19:32;;;;;;;112.15;60.50;;;20.10;93.40;;;;;;4941146;28;99237;-75
2023/09/13 02:21:57;;;;;;;109.53;59.03;;;20.10;93.80;;;;;;4926171;28;94790;-73
2023/09/13 02:24:23;;;;;;;112.97;61.50;;;20.10;93.80;;;;;;4935307;28;96240;-75
2023/09/13 02:26:57;;;;;;;110.05;59.90;;;20.10;93.20;;;;;;4937595;28;98030;-76
2023/09/13 02:29:23;;;;;;;115.80;63.20;;;20.10;93.30;;;;;;4921736;28;95167;-74
2023/09/13 02:31:49;;;;;;;110.28;59.72;;;20.10;93.20;;;;;;4945201;28;95724;-75
2023/09/13 02:34:15;;;;;;;108.05;57.90;;;20.10;93.50;;;;;;4934654;28;94213;-75
2023/09/13 02:36:40;;;;;;;115.50;61.70;;;20.10;93.80;;;;;;4945975;28;94379;-74
2023/09/13 02:39:36;;;;;;;112.22;60.47;;;20.10;93.20;;;;;;4939431;28;94419;-74
2023/09/13 02:42:06;;;;;;;114.80;61.90;;;20.10;93.20;;;;;;4939299;28;96170;-73
2023/09/13 02:44:32;;;;;;;110.82;58.72;;;20.10;93.40;;;;;;4948978;28;95138;-75
2023/09/13 02:46:59;;;;;;;113.82;62.20;;;20.10;93.50;;;;;;4942793;28;96350;-74
2023/09/13 02:49:25;;;;;;;114.38;62.08;;;20.10;93.20;;;;;;4938679;28;96912;-75
2023/09/13 02:51:51;;;;;;;116.63;62.83;;;20.10;93.30;;;;;;4926111;28;97271;-73
2023/09/13 02:54:17;;;;;;;114.25;61.97;;;20.10;92.90;;;;;;4920792;28;100061;-74
2023/09/13 02:56:44;;;;;;;116.68;62.30;;;20.10;93.20;;;;;;4937671;28;94766;-73
2023/09/13 02:59:09;;;;;;;111.28;59.72;;;20.00;93.10;;;;;;4943731;28;94753;-75
2023/09/13 03:01:35;;;;;;;112.85;61.85;;;20.00;93.20;;;;;;4940261;28;95543;-75
2023/09/13 03:04:00;;;;;;;113.22;60.38;;;20.00;93.20;;;;;;4939911;28;95945;-76
2023/09/13 03:06:26;;;;;;;115.50;63.10;;;20.00;93.10;;;;;;4940206;28;96879;-75
2023/09/13 03:08:52;;;;;;;115.40;61.50;;;20.00;93.10;;;;;;4941374;28;94626;-75
2023/09/13 03:11:18;;;;;;;117.90;63.85;;;20.00;93.20;;;;;;4919585;28;96807;-75
2023/09/13 03:13:45;;;;;;;111.57;60.30;;;20.00;93.00;;;;;;4939963;28;95691;-75
2023/09/13 03:16:12;;;;;;;111.93;60.30;;;20.00;93.10;;;;;;4933684;28;96342;-73
2023/09/13 03:18:38;;;;;;;118.63;65.57;;;20.00;93.40;;;;;;4935108;28;94714;-74
2023/09/13 03:21:10;;;;;;;114.93;62.80;;;20.00;93.10;;;;;;4931586;28;96004;-74
2023/09/13 03:23:41;;;;;;;112.63;60.92;;;20.00;93.20;;;;;;4941456;28;95096;-73
2023/09/13 03:26:18;;;;;;;112.95;61.60;;;19.90;93.20;;;;;;4938935;28;94659;-75
2023/09/13 03:28:49;;;;;;;110.45;58.70;;;19.90;93.30;;;;;;4932331;28;94814;-76
2023/09/13 03:31:16;;;;;;;109.88;59.20;;;19.90;93.80;;;;;;4935015;28;98939;-75
2023/09/13 03:33:43;;;;;;;116.10;63.25;;;19.90;93.40;;;;;;4940212;28;94865;-74
2023/09/13 03:36:10;;;;;;;111.80;61.33;;;19.80;93.40;;;;;;4941552;28;94059;-75
2023/09/13 03:38:38;;;;;;;112.20;61.25;;;19.80;93.40;;;;;;4933556;28;96090;-75
2023/09/13 03:41:04;;;;;;;113.30;60.78;;;19.80;93.40;;;;;;4937518;28;95444;-75
2023/09/13 03:43:30;;;;;;;112.80;60.92;;;19.80;93.40;;;;;;4938290;28;94317;-76
2023/09/13 03:45:56;;;;;;;114.68;62.42;;;19.80;93.40;;;;;;4932991;28;95580;-75
2023/09/13 03:48:22;;;;;;;111.68;60.13;;;19.80;93.90;;;;;;4942060;28;94075;-76
2023/09/13 03:50:49;;;;;;;114.07;60.75;;;19.80;93.90;;;;;;4932776;28;94856;-75
2023/09/13 03:53:14;;;;;;;111.40;60.65;;;19.70;93.70;;;;;;4936639;28;96434;-75
2023/09/13 03:55:41;;;;;;;114.93;61.45;;;19.70;93.50;;;;;;4930852;28;96841;-72
2023/09/13 03:58:07;;;;;;;111.28;58.53;;;19.70;93.50;;;;;;4939370;28;94660;-75
2023/09/13 04:00:35;;;;;;;110.40;59.78;;;19.70;93.60;;;;;;4931843;28;94667;-73
2023/09/13 04:03:01;;;;;;;114.63;62.08;;;19.70;93.70;;;;;;4935353;28;94293;-75
2023/09/13 04:05:27;;;;;;;106.88;57.70;;;19.70;93.50;;;;;;4934391;28;94055;-74
2023/09/13 04:07:52;;;;;;;112.30;60.20;;;19.70;93.90;;;;;;4934423;28;93893;-76
2023/09/13 04:10:18;;;;;;;108.45;58.85;;;19.60;93.90;;;;;;4933887;28;94287;-74
2023/09/13 04:12:43;;;;;;;109.60;58.58;;;19.60;93.80;;;;;;4914490;28;95959;-74
2023/09/13 04:15:09;;;;;;;111.28;59.25;;;19.60;93.70;;;;;;4942801;28;95008;-75
2023/09/13 04:17:35;;;;;;;111.75;60.47;;;19.60;93.50;;;;;;4936815;28;94555;-74
2023/09/13 04:20:00;;;;;;;110.20;60.22;;;19.60;93.70;;;;;;4937141;28;95554;-75
2023/09/13 04:22:26;;;;;;;108.55;58.50;;;19.60;93.90;;;;;;4934214;28;94962;-74
2023/09/13 04:24:51;;;;;;;112.18;59.75;;;19.60;94.00;;;;;;4926047;28;94605;-75
2023/09/13 04:27:22;;;;;;;109.40;59.33;;;19.60;93.70;;;;;;4933589;28;94560;-76
2023/09/13 04:29:47;;;;;;;109.80;59.03;;;19.50;94.00;;;;;;4939238;28;95535;-74
2023/09/13 04:32:13;;;;;;;109.32;58.47;;;19.60;93.80;;;;;;4935847;28;97750;-76
2023/09/13 04:34:39;;;;;;;109.13;58.40;;;19.50;94.10;;;;;;4925386;28;94687;-74
2023/09/13 04:37:05;;;;;;;108.38;58.25;;;19.60;94.10;;;;;;4944015;28;94245;-73
2023/09/13 04:39:31;;;;;;;109.00;58.53;;;19.50;94.00;;;;;;4936657;28;94021;-75
2023/09/13 04:41:58;;;;;;;105.68;56.78;;;19.60;94.10;;;;;;4935552;28;97971;-74
2023/09/13 04:44:24;;;;;;;106.13;58.00;;;19.60;94.40;;;;;;4942875;28;95621;-74
2023/09/13 04:46:50;;;;;;;109.30;58.60;;;19.60;93.70;;;;;;4943055;28;94221;-75
2023/09/13 04:49:16;;;;;;;108.80;58.42;;;19.60;93.90;;;;;;4932820;28;94765;-75
2023/09/13 04:51:41;;;;;;;108.93;58.45;;;19.60;93.60;;;;;;4938996;28;96145;-74
2023/09/13 04:54:07;;;;;;;110.00;57.75;;;19.60;93.70;;;;;;4934929;28;94496;-75
2023/09/13 04:56:32;;;;;;;107.18;58.00;;;19.60;94.00;;;;;;4941870;28;94856;-76
2023/09/13 04:58:58;;;;;;;106.78;57.80;;;19.60;93.50;;;;;;4941482;28;96030;-74
2023/09/13 05:01:24;;;;;;;106.45;56.83;;;19.60;93.90;;;;;;4943373;28;95345;-75
2023/09/13 05:03:50;;;;;;;104.57;56.85;;;19.60;93.80;;;;;;4935955;28;95611;-74
2023/09/13 05:06:16;;;;;;;105.78;57.45;;;19.60;94.30;;;;;;4949813;28;96838;-75
2023/09/13 05:08:41;;;;;;;108.47;57.60;;;19.70;94.30;;;;;;4943660;28;96022;-74
2023/09/13 05:11:07;;;;;;;104.97;56.50;;;19.70;93.60;;;;;;4941073;28;97796;-72
2023/09/13 05:13:33;;;;;;;107.93;58.92;;;19.70;94.10;;;;;;4939628;28;94204;-75
2023/09/13 05:15:58;;;;;;;104.78;56.45;;;19.70;93.40;;;;;;4939508;28;95058;-74
2023/09/13 05:18:24;;;;;;;105.43;56.60;;;19.70;94.10;;;;;;4938002;28;97350;-74
2023/09/13 05:20:49;;;;;;;102.88;55.92;;;19.70;94.00;;;;;;4921391;28;96014;-75
2023/09/13 05:23:15;;;;;;;108.38;58.38;;;19.70;93.80;;;;;;4908998;28;96935;-74
2023/09/13 05:25:45;;;;;;;107.78;57.95;;;19.70;93.30;;;;;;4918148;28;94574;-74
2023/09/13 05:28:12;;;;;;;105.78;57.28;;;19.70;93.30;;;;;;4930546;28;95010;-73
2023/09/13 05:30:37;;;;;;;106.22;57.25;;;19.70;93.50;;;;;;4930836;28;97702;-73
2023/09/13 05:33:03;;;;;;;106.07;57.65;;;19.80;93.40;;;;;;4921968;28;96238;-73
2023/09/13 05:35:32;;;;;;;107.55;57.88;;;19.80;93.40;;;;;;4930743;28;101519;-73
2023/09/13 05:37:58;;;;;;;103.00;56.05;;;19.80;93.20;;;;;;4939845;28;95676;-73
2023/09/13 05:40:27;;;;;;;102.68;55.42;;;19.80;94.20;;;;;;4926589;28;97906;-72
2023/09/13 05:42:52;;;;;;;107.47;57.38;;;19.80;94.50;;;;;;4927107;28;96856;-74
2023/09/13 05:45:18;;;;;;;103.20;55.75;;;19.90;94.00;;;;;;4935520;28;95220;-75
2023/09/13 05:47:43;;;;;;;106.38;56.90;;;19.90;93.90;;;;;;4928189;28;95311;-74
2023/09/13 05:50:09;;;;;;;103.45;55.35;;;19.90;93.90;;;;;;4947360;28;94993;-75
2023/09/13 05:52:37;;;;;;;102.88;55.75;;;19.90;94.90;;;;;;4940622;28;94605;-74
2023/09/13 05:55:03;;;;;;;103.47;55.38;;;20.00;94.60;;;;;;4930084;28;94507;-74
2023/09/13 05:57:28;;;;;;;102.30;55.20;;;20.00;94.50;;;;;;4948420;28;95672;-72
2023/09/13 05:59:54;;;;;;;104.05;56.17;;;19.90;94.20;;;;;;4959189;28;95174;-73
2023/09/13 06:02:19;;;;;;;106.35;56.65;;;20.00;94.30;;;;;;4955580;28;94914;-74
2023/09/13 06:04:45;;;;;;;106.53;56.78;;;19.90;93.10;;;;;;4952793;28;94224;-73
2023/09/13 06:07:11;;;;;;;105.05;56.35;;;20.00;93.00;;;;;;4957340;28;96340;-74
2023/09/13 06:09:36;;;;;;;106.70;56.95;;;20.00;93.20;;;;;;4956292;22;95709;-44
2023/09/13 06:12:02;;;;;;;104.07;56.35;;;20.00;92.70;;;;;;4934751;28;96400;-45
2023/09/13 06:14:28;;;;;;;104.95;56.45;;;20.00;93.10;;;;;;4929813;28;94009;-45
2023/09/13 06:16:53;;;;;;;105.53;56.50;;;20.00;93.70;;;;;;4932235;28;95099;-44
2023/09/13 06:19:19;;;;;;;103.05;55.33;;;20.00;92.90;;;;;;4929254;28;95659;-46
2023/09/13 06:21:46;;;;;;;105.63;56.33;;;20.10;92.80;;;;;;4933291;28;98219;-44
2023/09/13 06:24:11;;;;;;;105.68;57.05;;;20.10;92.90;;;;;;4930496;28;94647;-44
2023/09/13 06:26:37;;;;;;;103.03;55.70;;;20.10;92.70;;;;;;4936235;28;96516;-46
2023/09/13 06:29:02;;;;;;;107.32;57.15;;;20.10;93.30;;;;;;4930607;28;95169;-45
2023/09/13 06:31:28;;;;;;;112.25;57.65;;;20.10;92.20;;;;;;4932278;28;95374;-46
2023/09/13 06:33:54;;;;;;;107.50;57.17;;;20.10;92.20;;;;;;4930635;28;95272;-45
2023/09/13 06:36:20;;;;;;;104.00;56.08;;;20.10;92.10;;;;;;4931562;28;95443;-46
2023/09/13 06:38:45;;;;;;;103.07;55.90;;;20.20;92.50;;;;;;4932784;28;94978;-44
2023/09/13 06:41:11;;;;;;;104.78;55.90;;;20.20;92.10;;;;;;4930664;28;96757;-44
2023/09/13 06:43:37;;;;;;;104.93;55.92;;;20.10;92.20;;;;;;4935004;28;95447;-44
2023/09/13 06:46:03;;;;;;;107.90;55.83;;;20.10;92.20;;;;;;4927272;28;96341;-44
2023/09/13 06:48:29;;;;;;;106.53;56.50;;;20.20;92.80;;;;;;4933097;28;95761;-44
2023/09/13 06:50:55;;;;;;;107.45;56.00;;;20.20;92.00;;;;;;4927955;28;94706;-44
2023/09/13 06:53:20;;;;;;;105.15;55.55;;;20.30;92.20;;;;;;4935942;28;94631;-44
2023/09/13 06:55:46;;;;;;;103.85;55.80;;;20.30;91.90;;;;;;4929512;28;95078;-44
2023/09/13 06:58:12;;;;;;;104.35;55.45;;;20.30;91.90;;;;;;4932774;28;94907;-45
2023/09/13 07:00:40;;;;;;;103.68;55.58;;;20.40;92.20;;;;;;4930136;28;96860;-46
2023/09/13 07:03:08;;;;;;;106.47;55.70;;;20.30;92.00;;;;;;4935640;28;94279;-44
2023/09/13 07:05:34;;;;;;;105.05;55.38;;;20.40;92.10;;;;;;4925976;28;97503;-44
2023/09/13 07:08:00;;;;;;;106.38;55.17;;;20.50;92.20;;;;;;4929054;28;94982;-44
2023/09/13 07:10:27;;;;;;;105.18;55.65;;;20.50;91.80;;;;;;4931367;28;95730;-45
2023/09/13 07:12:53;;;;;;;105.55;55.65;;;20.60;92.50;;;;;;4932521;28;97307;-46
2023/09/13 07:15:18;;;;;;;108.15;55.28;;;20.60;91.90;;;;;;4935317;28;94730;-45
2023/09/13 07:17:44;;;;;;;105.35;55.65;;;20.60;91.40;;;;;;4926818;28;97616;-44
2023/09/13 07:20:11;;;;;;;105.45;55.22;;;20.60;92.10;;;;;;4932758;28;94729;-44
2023/09/13 07:22:37;;;;;;;103.35;55.42;;;20.60;91.70;;;;;;4926543;28;96381;-44
2023/09/13 07:25:06;;;;;;;105.35;55.47;;;20.70;91.80;;;;;;4936518;28;94797;-45
2023/09/13 07:27:32;;;;;;;105.72;55.25;;;20.70;91.30;;;;;;4933889;28;95099;-44
2023/09/13 07:29:58;;;;;;;106.75;55.42;;;20.70;91.40;;;;;;4928227;28;95184;-44
2023/09/13 07:32:23;;;;;;;104.93;55.58;;;20.80;91.10;;;;;;4933841;28;95612;-45
2023/09/13 07:34:49;;;;;;;106.32;55.25;;;20.80;91.20;;;;;;4925928;28;96092;-45
2023/09/13 07:37:14;;;;;;;104.05;55.40;;;20.80;91.00;;;;;;4932191;28;96068;-44
2023/09/13 07:39:42;;;;;;;105.47;55.20;;;20.90;91.50;;;;;;4929556;28;95748;-44
2023/09/13 07:42:08;;;;;;;107.45;55.53;;;20.80;90.60;;;;;;4933960;28;94773;-44
2023/09/13 07:44:33;;;;;;;106.72;55.72;;;20.80;90.90;;;;;;4927338;28;98109;-44
2023/09/13 07:46:59;;;;;;;107.32;55.22;;;20.80;90.90;;;;;;4933057;28;95157;-44
2023/09/13 07:49:27;;;;;;;105.57;55.83;;;20.90;90.60;;;;;;4930224;28;95344;-44
2023/09/13 07:51:53;;;;;;;105.40;55.13;;;21.00;90.40;;;;;;4933786;28;94836;-44
2023/09/13 07:54:18;;;;;;;104.25;55.47;;;21.00;91.00;;;;;;4929482;28;95122;-45
2023/09/13 07:56:44;;;;;;;104.57;55.28;;;21.10;90.70;;;;;;4930314;28;95675;-44
2023/09/13 07:59:14;;;;;;;111.10;55.60;;;21.10;90.60;;;;;;4929324;28;96217;-45
2023/09/13 08:01:40;;;;;;;106.18;55.67;;;21.10;90.40;;;;;;4930595;28;94632;-44
2023/09/13 08:04:06;;;;;;;104.75;55.47;;;21.10;90.60;;;;;;4931481;28;95120;-45
2023/09/13 08:06:31;;;;;;;105.13;55.45;;;21.10;91.10;;;;;;4927573;28;94693;-45
2023/09/13 08:08:58;;;;;;;109.35;55.53;;;21.10;90.90;;;;;;4934013;28;94606;-44
2023/09/13 08:11:23;;;;;;;107.97;55.60;;;21.10;90.80;;;;;;4927576;28;96868;-45
2023/09/13 08:13:49;;;;;;;105.18;55.75;;;21.20;90.60;;;;;;4932846;28;97648;-45
2023/09/13 08:16:16;;;;;;;105.30;55.50;;;21.20;90.20;;;;;;4928318;28;98594;-45
2023/09/13 08:18:41;;;;;;;107.53;55.55;;;21.30;90.20;;;;;;4931238;28;95049;-44
2023/09/13 08:21:07;;;;;;;105.03;55.45;;;21.30;90.00;;;;;;4936481;28;95209;-44
2023/09/13 08:23:33;;;;;;;106.93;55.65;;;21.40;90.20;;;;;;4932872;28;96709;-46
2023/09/13 08:25:58;;;;;;;106.28;55.50;;;21.40;90.10;;;;;;4928254;28;96401;-44
2023/09/13 08:28:24;;;;;;;109.10;55.80;;;21.40;90.00;;;;;;4932026;28;95102;-44
2023/09/13 08:30:51;;;;;;;108.28;55.92;;;21.50;88.70;;;;;;4934038;28;95633;-46
2023/09/13 08:33:16;;;;;;;108.55;55.85;;;21.50;88.80;;;;;;4929577;28;95306;-46
2023/09/13 08:35:42;;;;;;;108.72;56.03;;;21.60;88.50;;;;;;4935639;28;95416;-44
2023/09/13 08:38:08;;;;;;;108.40;55.85;;;21.60;88.80;;;;;;4929984;28;95092;-44
2023/09/13 08:40:40;;;;;;;109.72;55.85;;;21.60;88.80;;;;;;4936677;28;94673;-44
2023/09/13 08:43:08;;;;;;;107.10;55.72;;;21.60;88.70;;;;;;4931512;28;97654;-44
2023/09/13 08:45:35;;;;;;;107.50;55.53;;;21.60;88.50;;;;;;4938198;28;95566;-44
2023/09/13 08:48:02;;;;;;;106.72;55.53;;;21.60;87.30;;;;;;4928728;28;96187;-44
2023/09/13 08:50:29;;;;;;;105.82;55.33;;;21.60;87.60;;;;;;4936957;28;95172;-45
2023/09/13 08:53:00;;;;;;;108.63;55.75;;;21.60;87.60;;;;;;4930063;28;95298;-43
2023/09/13 08:55:26;;;;;;;108.53;56.00;;;21.60;87.60;;;;;;4934199;28;94980;-45
2023/09/13 08:57:53;;;;;;;108.55;55.67;;;21.60;86.70;;;;;;4933945;28;94802;-44
2023/09/13 09:00:19;;;;;;;105.72;55.78;;;21.60;87.60;;;;;;4931258;28;96013;-44
2023/09/13 09:02:48;;;;;;;107.57;55.92;;;21.60;88.80;;;;;;4935476;28;95051;-44
2023/09/13 09:05:16;;;;;;;105.88;55.75;;;21.60;88.40;;;;;;4929209;28;96600;-46
2023/09/13 09:07:43;;;;;;;106.00;55.40;;;21.60;88.40;;;;;;4934129;28;98306;-44
2023/09/13 09:10:11;;;;;;;108.10;55.88;;;21.70;87.20;;;;;;4931800;28;97439;-45
2023/09/13 09:12:41;;;;;;;105.22;55.42;;;21.70;87.20;;;;;;4938821;28;96028;-44
2023/09/13 09:15:08;;;;;;;106.80;55.60;;;21.70;88.40;;;;;;4936379;28;96431;-44
2023/09/13 09:17:35;;;;;;;105.70;55.30;;;21.70;87.70;;;;;;4932108;28;96191;-44
2023/09/13 09:20:01;;;;;;;107.75;55.85;;;21.70;87.20;;;;;;4936746;28;96145;-44
2023/09/13 09:22:29;;;;;;;106.80;55.60;;;21.70;86.30;;;;;;4930855;28;96435;-45
2023/09/13 09:24:57;;;;;;;105.45;56.03;;;21.70;87.30;;;;;;4935866;28;94971;-45
2023/09/13 09:27:22;;;;;;;105.40;55.78;;;21.70;86.80;;;;;;4931830;28;96158;-44
2023/09/13 09:30:05;;;;;;;105.90;55.42;;;21.80;86.50;;;;;;4935529;28;94117;-44
2023/09/13 09:32:31;;;;;;;105.53;55.70;;;21.80;86.50;;;;;;4935648;28;94743;-44
2023/09/13 09:34:59;;;;;;;107.65;55.72;;;21.90;86.50;;;;;;4929084;28;95466;-44
2023/09/13 09:37:29;;;;;;;108.28;55.50;;;21.90;86.10;;;;;;4934935;28;96443;-44
2023/09/13 09:39:55;;;;;;;109.20;55.83;;;21.90;85.20;;;;;;4928858;28;94864;-45
2023/09/13 09:42:21;;;;;;;105.22;55.47;;;21.90;85.00;;;;;;4936666;28;95202;-45
2023/09/13 09:44:46;;;;;;;105.13;55.30;;;21.90;87.10;;;;;;4927622;28;97000;-45
2023/09/13 09:47:15;;;;;;;106.78;56.13;;;21.90;86.20;;;;;;4932167;28;94760;-44
2023/09/13 09:49:48;;;;;;;106.15;55.72;;;21.90;87.40;;;;;;4932291;28;98084;-44
2023/09/13 09:52:15;;;;;;;105.53;55.90;;;21.80;87.00;;;;;;4930832;28;95817;-44
2023/09/13 09:54:47;;;;;;;105.93;55.80;;;21.90;88.00;;;;;;4938468;28;94328;-46
2023/09/13 09:57:22;;;;;;;107.13;56.10;;;22.00;87.70;;;;;;4934567;28;98203;-44
2023/09/13 09:59:48;;;;;;;106.15;55.60;;;22.00;84.80;;;;;;4936250;28;94778;-44
2023/09/13 10:02:14;;;;;;;105.15;55.65;;;22.00;83.70;;;;;;4929603;28;96335;-45
2023/09/13 10:04:47;;;;;;;105.55;55.78;;;22.00;85.60;;;;;;4938468;28;96069;-44
2023/09/13 10:07:13;;;;;;;105.47;55.40;;;22.00;86.00;;;;;;4930655;28;94780;-45
2023/09/13 10:09:43;;;;;;;106.38;55.97;;;21.90;84.80;;;;;;4935809;28;95301;-46
2023/09/13 10:12:09;;;;;;;104.47;55.65;;;21.90;84.90;;;;;;4934411;28;98310;-43
2023/09/13 10:14:40;;;;;;;105.53;55.47;;;22.00;85.50;;;;;;4938921;28;94828;-46
2023/09/13 10:17:06;;;;;;;106.70;55.63;;;21.90;85.90;;;;;;4934040;28;95002;-45
2023/09/13 10:19:33;;;;;;;106.10;55.97;;;22.00;85.60;;;;;;4931760;28;94527;-44
2023/09/13 10:22:00;;;;;;;106.70;55.72;;;21.90;84.70;;;;;;4929855;28;94842;-43
2023/09/13 10:24:37;;;;;;;106.45;55.83;;;22.00;85.70;;;;;;4931865;28;95796;-44
2023/09/13 10:27:10;;;;;;;105.20;55.63;;;22.00;86.20;;;;;;4927852;28;96331;-44
2023/09/13 10:29:57;;;;;;;106.95;55.58;;;22.00;86.00;;;;;;4933159;28;96413;-44
2023/09/13 10:32:31;;;;;;;105.63;55.70;;;22.00;87.50;;;;;;4931686;28;94647;-44
2023/09/13 10:35:00;;;;;;;107.32;56.22;;;22.10;87.00;;;;;;4930182;28;96139;-44
2023/09/13 10:38:06;;;;;;;105.25;55.38;;;22.10;87.50;;;;;;4934077;28;96502;-44
2023/09/13 10:40:40;;;;;;;105.63;55.95;;;22.10;85.80;;;;;;4933913;28;94687;-46
2023/09/13 10:43:06;;;;;;;105.78;55.83;;;22.20;86.70;;;;;;4929337;28;95006;-44
2023/09/13 10:45:31;;;;;;;105.25;55.70;;;22.30;88.10;;;;;;4935148;28;98344;-44
2023/09/13 10:48:00;;;;;;;104.70;55.55;;;22.30;85.30;;;;;;4925224;28;96289;-44
2023/09/13 10:50:26;;;;;;;105.22;55.60;;;22.30;85.50;;;;;;4934879;28;95122;-45
2023/09/13 10:52:53;;;;;;;104.75;55.58;;;22.20;85.10;;;;;;4930341;28;98510;-45
2023/09/13 10:55:19;;;;;;;106.18;55.78;;;22.20;85.90;;;;;;4931773;28;96609;-44
2023/09/13 10:57:46;;;;;;;108.45;55.85;;;22.20;85.70;;;;;;4934244;28;94625;-44
2023/09/13 11:00:13;;;;;;;106.13;56.15;;;22.30;84.20;;;;;;4930014;28;96403;-44
2023/09/13 11:02:46;;;;;;;105.35;55.83;;;22.30;84.40;;;;;;4934801;28;95233;-44
2023/09/13 11:05:13;;;;;;;107.15;55.95;;;22.30;85.20;;;;;;4927007;28;94365;-45
2023/09/13 11:07:46;;;;;;;106.22;56.17;;;22.40;86.20;;;;;;4935660;28;95099;-44
2023/09/13 11:10:17;;;;;;;106.05;55.90;;;22.60;86.30;;;;;;4933722;28;94598;-44
2023/09/13 11:12:48;;;;;;;106.47;55.95;;;22.60;85.10;;;;;;4930424;28;94823;-46
2023/09/13 11:15:25;;;;;;;106.38;55.88;;;22.60;85.40;;;;;;4934351;28;96502;-44
2023/09/13 11:18:12;;;;;;;107.03;56.10;;;22.60;83.90;;;;;;4926590;28;100185;-44
2023/09/13 11:20:39;;;;;;;106.60;56.00;;;22.70;85.50;;;;;;4933193;28;94768;-44
2023/09/13 11:23:15;;;;;;;105.85;56.00;;;22.70;84.60;;;;;;4932644;28;98828;-44
2023/09/13 11:25:47;;;;;;;106.22;56.00;;;22.80;84.70;;;;;;4928086;28;95665;-44
2023/09/13 11:28:31;;;;;;;106.88;56.42;;;22.80;84.60;;;;;;4933235;28;94964;-44
2023/09/13 11:30:59;;;;;;;106.47;56.17;;;22.90;84.40;;;;;;4932106;28;95097;-46
2023/09/13 11:33:28;;;;;;;106.93;56.42;;;22.90;84.30;;;;;;4926991;28;95967;-44
2023/09/13 11:35:56;;;;;;;107.85;56.55;;;23.00;83.70;;;;;;4933387;28;96182;-45
2023/09/13 11:38:22;;;;;;;106.70;55.95;;;23.10;83.20;;;;;;4928760;28;99560;-45
2023/09/13 11:40:48;;;;;;;106.85;56.33;;;23.10;83.20;;;;;;4933153;28;98331;-45
2023/09/13 11:43:25;;;;;;;107.60;56.78;;;23.10;82.60;;;;;;4927627;28;96114;-44
2023/09/13 11:45:55;;;;;;;106.93;56.28;;;23.10;83.40;;;;;;4934201;28;97025;-45
2023/09/13 11:48:21;;;;;;;107.68;56.70;;;23.10;83.30;;;;;;4922696;28;96646;-44
2023/09/13 11:50:49;;;;;;;107.78;56.72;;;23.10;81.30;;;;;;4925023;28;95072;-44
2023/09/13 11:53:20;;;;;;;106.82;56.30;;;23.10;82.80;;;;;;4935026;28;96239;-44
2023/09/13 11:55:55;;;;;;;107.60;56.47;;;23.10;83.20;;;;;;4927874;28;95353;-44
2023/09/13 11:58:37;;;;;;;106.82;56.72;;;23.10;82.90;;;;;;4928122;28;97565;-46
2023/09/13 12:01:05;;;;;;;106.68;56.05;;;23.10;82.90;;;;;;4934336;28;93888;-47
2023/09/13 12:03:37;;;;;;;107.28;56.78;;;23.10;83.00;;;;;;4928422;28;97678;-45
2023/09/13 12:06:03;;;;;;;106.78;56.35;;;23.10;83.00;;;;;;4940387;28;94495;-44
2023/09/13 12:08:29;;;;;;;106.43;56.13;;;23.10;83.10;;;;;;4933553;28;96670;-45
2023/09/13 12:11:02;;;;;;;106.50;56.25;;;23.10;83.60;;;;;;4934039;28;95493;-44
2023/09/13 12:13:41;;;;;;;107.20;56.45;;;23.10;83.60;;;;;;4934310;28;94950;-44
2023/09/13 12:16:07;;;;;;;106.57;56.22;;;23.00;83.80;;;;;;4931169;28;96055;-46
2023/09/13 12:18:34;;;;;;;106.57;56.33;;;23.10;84.00;;;;;;4931668;28;97082;-44
2023/09/13 12:21:00;;;;;;;107.20;56.35;;;23.00;84.00;;;;;;4930283;28;94884;-44